Time,TemperatureF,DewpointF,PressureIn,WindDirection,WindDirectionDegrees,WindSpeedMPH,WindSpeedGustMPH,Humidity,HourlyPrecipIn,Conditions,Clouds,dailyrainin,SoftwareType,DateUTC
2013-03-25 00:14:00,47.3,41.0,30.00,WSW,254,0.0,0.0,79,0.00,,,0.00,weatherlink.com 1.10,2013-03-25 07:14:00,
2013-03-25 00:29:00,46.9,41.0,30.00,WSW,254,0.0,1.0,80,0.00,,,0.00,weatherlink.com 1.10,2013-03-25 07:29:00,
2013-03-25 00:44:00,46.5,41.0,30.00,WSW,254,0.0,0.0,81,0.00,,,0.00,weatherlink.com 1.10,2013-03-25 07:44:00,
2013-03-25 00:59:00,46.2,41.0,30.00,WSW,254,0.0,0.0,82,0.00,,,0.00,weatherlink.com 1.10,2013-03-25 07:59:00,
2013-03-25 01:14:00,45.8,41.0,30.00,WSW,254,0.0,0.0,82,0.00,,,0.00,weatherlink.com 1.10,2013-03-25 08:14:00,
2013-03-25 01:29:00,45.2,40.0,30.00,WSW,254,0.0,0.0,83,0.00,,,0.00,weatherlink.com 1.10,2013-03-25 08:29:00,
2013-03-25 01:44:00,45.2,40.0,30.00,WSW,254,0.0,0.0,83,0.00,,,0.00,weatherlink.com 1.10,2013-03-25 08:44:00,
2013-03-25 01:59:00,45.2,41.0,30.00,WSW,254,0.0,2.0,84,0.00,,,0.00,weatherlink.com 1.10,2013-03-25 08:59:00,
2013-03-25 02:14:00,44.9,40.0,30.00,WSW,254,0.0,0.0,84,0.00,,,0.00,weatherlink.com 1.10,2013-03-25 09:14:00,
2013-03-25 02:29:00,44.5,40.0,30.00,WSW,254,0.0,0.0,84,0.00,,,0.00,weatherlink.com 1.10,2013-03-25 09:29:00,
2013-03-25 02:44:00,44.0,40.0,30.00,WSW,254,0.0,0.0,85,0.00,,,0.00,weatherlink.com 1.10,2013-03-25 09:44:00,
2013-03-25 02:59:00,43.8,40.0,29.99,WSW,254,0.0,1.0,86,0.00,,,0.00,weatherlink.com 1.10,2013-03-25 09:59:00,
2013-03-25 03:14:00,43.6,40.0,30.00,WSW,254,0.0,0.0,86,0.00,,,0.00,weatherlink.com 1.10,2013-03-25 10:14:00,
2013-03-25 03:29:00,43.4,40.0,29.99,WSW,254,0.0,0.0,86,0.00,,,0.00,weatherlink.com 1.10,2013-03-25 10:29:00,
2013-03-25 03:44:00,43.1,40.0,29.99,WSW,254,0.0,0.0,87,0.00,,,0.00,weatherlink.com 1.10,2013-03-25 10:44:00,
2013-03-25 03:59:00,43.1,40.0,29.99,WSW,254,0.0,2.0,87,0.00,,,0.00,weatherlink.com 1.10,2013-03-25 10:59:00,
2013-03-25 04:14:00,43.2,40.0,29.98,WSW,254,0.0,0.0,87,0.00,,,0.00,weatherlink.com 1.10,2013-03-25 11:14:00,
2013-03-25 04:29:00,43.0,39.0,29.98,WSW,254,0.0,0.0,87,0.00,,,0.00,weatherlink.com 1.10,2013-03-25 11:29:00,
2013-03-25 04:44:00,42.8,40.0,29.99,WSW,254,0.0,0.0,88,0.00,,,0.00,weatherlink.com 1.10,2013-03-25 11:44:00,
2013-03-25 04:59:00,42.5,39.0,29.99,WSW,254,0.0,0.0,88,0.00,,,0.00,weatherlink.com 1.10,2013-03-25 11:59:00,
2013-03-25 05:14:00,42.5,40.0,29.99,WSW,254,0.0,0.0,89,0.00,,,0.00,weatherlink.com 1.10,2013-03-25 12:14:00,
2013-03-25 05:29:00,42.1,39.0,29.99,WSW,254,0.0,0.0,88,0.00,,,0.00,weatherlink.com 1.10,2013-03-25 12:29:00,
2013-03-25 05:44:00,42.1,39.0,29.99,WSW,254,0.0,0.0,90,0.00,,,0.00,weatherlink.com 1.10,2013-03-25 12:44:00,
2013-03-25 06:00:00,42.3,40.0,29.99,WSW,254,0.0,1.0,90,0.00,,,0.00,weatherlink.com 1.10,2013-03-25 13:00:00,
2013-03-25 06:15:00,42.3,39.0,29.99,WSW,254,0.0,0.0,89,0.00,,,0.00,weatherlink.com 1.10,2013-03-25 13:15:00,
2013-03-25 06:30:00,42.3,40.0,30.00,WSW,254,0.0,2.0,90,0.00,,,0.00,weatherlink.com 1.10,2013-03-25 13:30:00,
2013-03-25 06:45:00,42.1,39.0,30.00,WSW,254,0.0,0.0,90,0.00,,,0.00,weatherlink.com 1.10,2013-03-25 13:45:00,
2013-03-25 07:00:00,41.8,39.0,30.00,WSW,254,0.0,0.0,90,0.00,,,0.00,weatherlink.com 1.10,2013-03-25 14:00:00,
2013-03-25 07:15:00,41.5,39.0,30.00,WSW,254,0.0,0.0,90,0.00,,,0.00,weatherlink.com 1.10,2013-03-25 14:15:00,
2013-03-25 07:30:00,41.7,39.0,30.00,WSW,254,0.0,1.0,91,0.00,,,0.00,weatherlink.com 1.10,2013-03-25 14:30:00,
2013-03-25 07:45:00,42.3,40.0,30.00,WSW,254,0.0,2.0,91,0.00,,,0.00,weatherlink.com 1.10,2013-03-25 14:45:00,
2013-03-25 08:00:00,42.9,41.0,30.01,WSW,254,0.0,1.0,91,0.00,,,0.00,weatherlink.com 1.10,2013-03-25 15:00:00,
2013-03-25 08:15:00,44.0,42.0,30.00,WSW,254,0.0,0.0,91,0.00,,,0.00,weatherlink.com 1.10,2013-03-25 15:15:00,
2013-03-25 08:30:00,45.2,43.0,30.01,WSW,254,0.0,1.0,91,0.00,,,0.00,weatherlink.com 1.10,2013-03-25 15:30:00,
2013-03-25 08:45:00,47.0,44.0,30.01,WSW,254,0.0,1.0,88,0.00,,,0.00,weatherlink.com 1.10,2013-03-25 15:45:00,
2013-03-25 09:00:00,48.7,44.0,30.01,SE,144,1.0,2.0,85,0.00,,,0.00,weatherlink.com 1.10,2013-03-25 16:00:00,
2013-03-25 09:15:00,49.7,44.0,30.02,SSE,155,2.0,6.0,81,0.00,,,0.00,weatherlink.com 1.10,2013-03-25 16:15:00,
2013-03-25 09:30:00,50.2,44.0,30.01,SSE,159,1.0,4.0,80,0.00,,,0.00,weatherlink.com 1.10,2013-03-25 16:30:00,
2013-03-25 09:45:00,51.2,45.0,30.01,SE,139,2.0,5.0,78,0.00,,,0.00,weatherlink.com 1.10,2013-03-25 16:45:00,
2013-03-25 10:00:00,52.3,45.0,30.01,SE,128,1.0,4.0,77,0.00,,,0.00,weatherlink.com 1.10,2013-03-25 17:00:00,
2013-03-25 10:15:00,53.2,45.0,30.01,SSE,164,2.0,4.0,74,0.00,,,0.00,weatherlink.com 1.10,2013-03-25 17:15:00,
2013-03-25 10:30:00,54.0,45.0,30.02,East,89,1.0,2.0,72,0.00,,,0.00,weatherlink.com 1.10,2013-03-25 17:30:00,
2013-03-25 10:45:00,54.3,46.0,30.02,North,5,2.0,6.0,73,0.00,,,0.00,weatherlink.com 1.10,2013-03-25 17:45:00,
2013-03-25 11:00:00,54.8,46.0,30.02,WNW,302,4.0,6.0,72,0.00,,,0.00,weatherlink.com 1.10,2013-03-25 18:00:00,
2013-03-25 11:15:00,54.2,44.0,30.02,NW,326,2.0,8.0,69,0.00,,,0.00,weatherlink.com 1.10,2013-03-25 18:15:00,
2013-03-25 11:30:00,54.9,44.0,30.02,WNW,297,4.0,7.0,67,0.00,,,0.00,weatherlink.com 1.10,2013-03-25 18:30:00,
2013-03-25 11:45:00,55.5,44.0,30.02,NNW,346,4.0,7.0,66,0.00,,,0.00,weatherlink.com 1.10,2013-03-25 18:45:00,
2013-03-25 12:00:00,56.1,44.0,30.01,NNW,331,5.0,7.0,65,0.00,,,0.00,weatherlink.com 1.10,2013-03-25 19:00:00,
2013-03-25 12:15:00,56.8,45.0,30.01,NW,309,2.0,7.0,66,0.00,,,0.00,weatherlink.com 1.10,2013-03-25 19:15:00,
2013-03-25 12:30:00,57.0,45.0,30.01,NNE,19,0.0,7.0,65,0.00,,,0.00,weatherlink.com 1.10,2013-03-25 19:30:00,
2013-03-25 12:45:00,56.9,45.0,30.00,NW,321,4.0,9.0,64,0.00,,,0.00,weatherlink.com 1.10,2013-03-25 19:45:00,
2013-03-25 13:00:00,57.9,46.0,30.00,WNW,293,4.0,9.0,64,0.00,,,0.00,weatherlink.com 1.10,2013-03-25 20:00:00,
2013-03-25 13:15:00,59.1,45.0,30.00,NW,325,5.0,8.0,61,0.00,,,0.00,weatherlink.com 1.10,2013-03-25 20:15:00,
2013-03-25 13:30:00,59.0,46.0,29.99,NW,315,3.0,11.0,62,0.00,,,0.00,weatherlink.com 1.10,2013-03-25 20:30:00,
2013-03-25 13:45:00,59.0,46.0,29.99,NW,311,5.0,9.0,62,0.00,,,0.00,weatherlink.com 1.10,2013-03-25 20:45:00,
2013-03-25 14:00:00,59.3,46.0,29.98,NW,317,3.0,9.0,62,0.00,,,0.00,weatherlink.com 1.10,2013-03-25 21:00:00,
2013-03-25 14:16:00,60.5,46.0,29.98,NW,323,4.0,11.0,60,0.00,,,0.00,weatherlink.com 1.10,2013-03-25 21:16:00,
2013-03-25 14:31:00,61.0,46.0,29.97,North,5,6.0,9.0,59,0.00,,,0.00,weatherlink.com 1.10,2013-03-25 21:31:00,
2013-03-25 14:46:00,60.5,46.0,29.96,NNW,343,6.0,9.0,59,0.00,,,0.00,weatherlink.com 1.10,2013-03-25 21:46:00,
2013-03-25 15:01:00,60.6,46.0,29.96,West,273,3.0,9.0,59,0.00,,,0.00,weatherlink.com 1.10,2013-03-25 22:01:00,
2013-03-25 15:16:00,61.6,46.0,29.96,WNW,288,5.0,9.0,57,0.00,,,0.00,weatherlink.com 1.10,2013-03-25 22:16:00,
2013-03-25 15:46:00,58.7,45.0,29.95,West,271,5.0,10.0,61,0.00,,,0.00,weatherlink.com 1.10,2013-03-25 22:46:00,
2013-03-25 16:01:00,58.7,45.0,29.95,NNW,336,6.0,9.0,60,0.00,,,0.00,weatherlink.com 1.10,2013-03-25 23:01:00,
2013-03-25 16:31:00,58.7,45.0,29.95,WNW,298,6.0,9.0,60,0.00,,,0.00,weatherlink.com 1.10,2013-03-25 23:31:00,
2013-03-25 16:46:00,58.4,44.0,29.94,NW,325,7.0,8.0,60,0.00,,,0.00,weatherlink.com 1.10,2013-03-25 23:46:00,
2013-03-25 17:01:00,58.8,44.0,29.94,NW,311,3.0,9.0,58,0.00,,,0.00,weatherlink.com 1.10,2013-03-26 00:01:00,
2013-03-25 17:31:00,56.3,43.0,29.94,NW,324,5.0,13.0,61,0.00,,,0.00,weatherlink.com 1.10,2013-03-26 00:31:00,
2013-03-25 17:46:00,55.1,43.0,29.94,West,278,2.0,10.0,63,0.00,,,0.00,weatherlink.com 1.10,2013-03-26 00:46:00,
2013-03-25 18:01:00,54.3,43.0,29.94,WNW,282,3.0,11.0,65,0.00,,,0.00,weatherlink.com 1.10,2013-03-26 01:01:00,
2013-03-25 18:16:00,53.0,42.0,29.95,West,267,2.0,15.0,67,0.00,,,0.00,weatherlink.com 1.10,2013-03-26 01:16:00,
2013-03-25 18:31:00,51.5,42.0,29.95,West,279,7.0,16.0,70,0.00,,,0.00,weatherlink.com 1.10,2013-03-26 01:31:00,
2013-03-25 19:01:00,50.7,42.0,29.96,SSW,197,5.0,12.0,72,0.00,,,0.00,weatherlink.com 1.10,2013-03-26 02:01:00,
2013-03-25 19:16:00,50.3,42.0,29.96,WSW,246,5.0,14.0,73,0.00,,,0.00,weatherlink.com 1.10,2013-03-26 02:16:00,
2013-03-25 19:31:00,50.2,42.0,29.97,NW,309,2.0,8.0,74,0.00,,,0.00,weatherlink.com 1.10,2013-03-26 02:31:00,
2013-03-25 19:46:00,50.0,42.0,29.97,WNW,288,3.0,7.0,75,0.00,,,0.00,weatherlink.com 1.10,2013-03-26 02:46:00,
2013-03-25 20:01:00,50.0,42.0,29.97,WNW,286,5.0,9.0,75,0.00,,,0.00,weatherlink.com 1.10,2013-03-26 03:01:00,
2013-03-25 20:16:00,49.8,43.0,29.97,WNW,284,2.0,10.0,76,0.00,,,0.00,weatherlink.com 1.10,2013-03-26 03:16:00,
2013-03-25 21:01:00,49.4,42.0,29.98,WNW,298,2.0,9.0,76,0.00,,,0.00,weatherlink.com 1.10,2013-03-26 04:01:00,
2013-03-25 21:16:00,49.3,42.0,29.98,WSW,255,4.0,8.0,76,0.00,,,0.00,weatherlink.com 1.10,2013-03-26 04:16:00,
2013-03-25 21:31:00,49.2,42.0,29.98,West,265,7.0,10.0,77,0.00,,,0.00,weatherlink.com 1.10,2013-03-26 04:31:00,
2013-03-25 21:46:00,49.2,43.0,29.98,West,275,3.0,10.0,79,0.00,,,0.00,weatherlink.com 1.10,2013-03-26 04:46:00,
2013-03-25 22:16:00,48.9,43.0,29.99,West,267,5.0,7.0,79,0.00,,,0.00,weatherlink.com 1.10,2013-03-26 05:16:00,
2013-03-25 22:31:00,49.3,43.0,29.99,WSW,249,0.0,9.0,78,0.00,,,0.00,weatherlink.com 1.10,2013-03-26 05:31:00,
2013-03-25 22:46:00,49.3,43.0,30.00,West,280,1.0,5.0,78,0.00,,,0.00,weatherlink.com 1.10,2013-03-26 05:46:00,
2013-03-25 23:01:00,49.1,43.0,30.00,West,259,0.0,4.0,78,0.00,,,0.00,weatherlink.com 1.10,2013-03-26 06:01:00,
2013-03-25 23:16:00,48.7,42.0,30.00,WNW,294,0.0,3.0,79,0.00,,,0.00,weatherlink.com 1.10,2013-03-26 06:16:00,
2013-03-25 23:31:00,48.8,43.0,30.01,West,276,1.0,4.0,80,0.00,,,0.00,weatherlink.com 1.10,2013-03-26 06:31:00,
2013-03-25 23:46:00,49.0,43.0,30.01,West,272,4.0,9.0,79,0.00,,,0.00,weatherlink.com 1.10,2013-03-26 06:46:00,